sensor_id;sensor_type;location;lat;lon;timestamp;temperature;humidity
3846;DHT22;1938;50.812;7.738;2022-09-09T00:07:00;15.30;8.10
3846;DHT22;1938;50.812;7.738;2022-09-09T00:09:29;15.30;9.30
3846;DHT22;1938;50.812;7.738;2022-09-09T00:12:12;15.30;4.60
3846;DHT22;1938;50.812;7.738;2022-09-09T00:14:48;15.30;4.30
3846;DHT22;1938;50.812;7.738;2022-09-09T00:20:01;15.30;1.00
3846;DHT22;1938;50.812;7.738;2022-09-09T00:22:29;15.30;1.00
3846;DHT22;1938;50.812;7.738;2022-09-09T00:25:08;15.30;1.00
3846;DHT22;1938;50.812;7.738;2022-09-09T00:27:43;15.30;1.00
3846;DHT22;1938;50.812;7.738;2022-09-09T00:30:19;15.30;1.00
3846;DHT22;1938;50.812;7.738;2022-09-09T00:32:47;15.30;1.00
3846;DHT22;1938;50.812;7.738;2022-09-09T00:35:25;15.30;1.00
3846;DHT22;1938;50.812;7.738;2022-09-09T00:37:54;15.30;1.00
3846;DHT22;1938;50.812;7.738;2022-09-09T00:40:29;15.30;1.00
3846;DHT22;1938;50.812;7.738;2022-09-09T00:43:28;15.30;2.00
3846;DHT22;1938;50.812;7.738;2022-09-09T00:51:46;15.30;23.30
3846;DHT22;1938;50.812;7.738;2022-09-09T00:59:52;15.30;15.60
3846;DHT22;1938;50.812;7.738;2022-09-09T01:07:48;15.30;39.60
3846;DHT22;1938;50.812;7.738;2022-09-09T01:13:22;15.20;36.30
3846;DHT22;1938;50.812;7.738;2022-09-09T01:15:49;15.20;47.30
3846;DHT22;1938;50.812;7.738;2022-09-09T01:18:17;15.10;57.90
3846;DHT22;1938;50.812;7.738;2022-09-09T01:26:22;15.00;82.30
3846;DHT22;1938;50.812;7.738;2022-09-09T01:28:51;15.00;82.40
3846;DHT22;1938;50.812;7.738;2022-09-09T01:34:17;14.90;99.90
3846;DHT22;1938;50.812;7.738;2022-09-09T01:36:46;15.00;99.90
3846;DHT22;1938;50.812;7.738;2022-09-09T01:39:14;15.00;99.90
3846;DHT22;1938;50.812;7.738;2022-09-09T01:41:39;14.90;99.90
3846;DHT22;1938;50.812;7.738;2022-09-09T01:44:06;14.90;99.90
3846;DHT22;1938;50.812;7.738;2022-09-09T01:46:32;14.90;99.90
3846;DHT22;1938;50.812;7.738;2022-09-09T01:48:59;15.00;99.90
3846;DHT22;1938;50.812;7.738;2022-09-09T01:51:26;14.90;99.90
3846;DHT22;1938;50.812;7.738;2022-09-09T01:53:51;15.00;99.90
3846;DHT22;1938;50.812;7.738;2022-09-09T01:56:55;14.90;99.90
3846;DHT22;1938;50.812;7.738;2022-09-09T01:59:27;14.90;99.90
3846;DHT22;1938;50.812;7.738;2022-09-09T02:02:03;15.00;99.90
3846;DHT22;1938;50.812;7.738;2022-09-09T02:04:45;15.00;99.90
3846;DHT22;1938;50.812;7.738;2022-09-09T02:07:40;15.00;99.90
3846;DHT22;1938;50.812;7.738;2022-09-09T02:13:07;15.00;99.90
3846;DHT22;1938;50.812;7.738;2022-09-09T02:15:52;15.10;99.90
3846;DHT22;1938;50.812;7.738;2022-09-09T02:18:24;15.10;99.90
3846;DHT22;1938;50.812;7.738;2022-09-09T02:20:51;15.10;99.90
3846;DHT22;1938;50.812;7.738;2022-09-09T02:23:17;15.10;99.90
3846;DHT22;1938;50.812;7.738;2022-09-09T02:25:45;15.20;99.90
3846;DHT22;1938;50.812;7.738;2022-09-09T02:28:13;15.20;99.90
3846;DHT22;1938;50.812;7.738;2022-09-09T02:30:41;15.20;98.30
3846;DHT22;1938;50.812;7.738;2022-09-09T02:33:08;15.20;95.40
3846;DHT22;1938;50.812;7.738;2022-09-09T02:35:36;15.30;90.10
3846;DHT22;1938;50.812;7.738;2022-09-09T02:38:07;15.30;66.00
3846;DHT22;1938;50.812;7.738;2022-09-09T02:40:33;15.40;63.80
3846;DHT22;1938;50.812;7.738;2022-09-09T02:42:59;15.30;50.90
3846;DHT22;1938;50.812;7.738;2022-09-09T02:45:45;15.40;52.40
3846;DHT22;1938;50.812;7.738;2022-09-09T02:48:20;15.40;39.00
3846;DHT22;1938;50.812;7.738;2022-09-09T02:51:04;15.40;33.80
3846;DHT22;1938;50.812;7.738;2022-09-09T02:53:47;15.30;18.80
3846;DHT22;1938;50.812;7.738;2022-09-09T02:56:16;15.30;24.70
3846;DHT22;1938;50.812;7.738;2022-09-09T02:58:43;15.30;31.10
3846;DHT22;1938;50.812;7.738;2022-09-09T03:01:09;15.30;36.90
3846;DHT22;1938;50.812;7.738;2022-09-09T03:03:35;15.30;43.60
3846;DHT22;1938;50.812;7.738;2022-09-09T03:06:01;15.40;32.90
3846;DHT22;1938;50.812;7.738;2022-09-09T03:08:27;15.40;31.10
3846;DHT22;1938;50.812;7.738;2022-09-09T03:10:54;15.30;26.00
3846;DHT22;1938;50.812;7.738;2022-09-09T03:13:20;15.30;20.40
3846;DHT22;1938;50.812;7.738;2022-09-09T03:15:47;15.20;22.80
3846;DHT22;1938;50.812;7.738;2022-09-09T03:18:13;15.20;37.90
3846;DHT22;1938;50.812;7.738;2022-09-09T03:20:39;15.20;37.30
3846;DHT22;1938;50.812;7.738;2022-09-09T03:23:07;15.20;40.40
3846;DHT22;1938;50.812;7.738;2022-09-09T03:25:33;15.10;55.50
3846;DHT22;1938;50.812;7.738;2022-09-09T03:27:58;15.10;56.60
3846;DHT22;1938;50.812;7.738;2022-09-09T03:30:26;15.10;79.30
3846;DHT22;1938;50.812;7.738;2022-09-09T03:32:52;15.10;88.10
3846;DHT22;1938;50.812;7.738;2022-09-09T03:35:18;15.10;92.90
3846;DHT22;1938;50.812;7.738;2022-09-09T03:37:44;15.20;83.90
3846;DHT22;1938;50.812;7.738;2022-09-09T03:40:10;15.20;91.20
3846;DHT22;1938;50.812;7.738;2022-09-09T03:42:36;15.20;88.60
3846;DHT22;1938;50.812;7.738;2022-09-09T03:45:06;15.20;75.00
3846;DHT22;1938;50.812;7.738;2022-09-09T03:47:33;15.20;84.40
3846;DHT22;1938;50.812;7.738;2022-09-09T03:49:58;15.30;72.40
3846;DHT22;1938;50.812;7.738;2022-09-09T03:52:24;15.30;63.00
3846;DHT22;1938;50.812;7.738;2022-09-09T03:54:53;15.30;66.80
3846;DHT22;1938;50.812;7.738;2022-09-09T03:57:19;15.30;61.00
3846;DHT22;1938;50.812;7.738;2022-09-09T03:59:45;15.30;50.00
3846;DHT22;1938;50.812;7.738;2022-09-09T04:02:11;15.30;43.00
3846;DHT22;1938;50.812;7.738;2022-09-09T04:04:36;15.40;31.50
3846;DHT22;1938;50.812;7.738;2022-09-09T04:07:02;15.30;23.60
3846;DHT22;1938;50.812;7.738;2022-09-09T04:09:28;15.30;29.80
3846;DHT22;1938;50.812;7.738;2022-09-09T04:11:53;15.40;32.50
3846;DHT22;1938;50.812;7.738;2022-09-09T04:14:19;15.30;31.50
3846;DHT22;1938;50.812;7.738;2022-09-09T04:16:46;15.30;47.10
3846;DHT22;1938;50.812;7.738;2022-09-09T04:19:12;15.40;53.00
3846;DHT22;1938;50.812;7.738;2022-09-09T04:21:42;15.40;62.10
3846;DHT22;1938;50.812;7.738;2022-09-09T04:24:08;15.40;81.30
3846;DHT22;1938;50.812;7.738;2022-09-09T04:26:34;15.40;99.90
3846;DHT22;1938;50.812;7.738;2022-09-09T04:29:02;15.50;96.80
3846;DHT22;1938;50.812;7.738;2022-09-09T04:31:27;15.50;99.90
3846;DHT22;1938;50.812;7.738;2022-09-09T04:33:53;15.50;99.90
3846;DHT22;1938;50.812;7.738;2022-09-09T04:36:19;15.50;99.90
3846;DHT22;1938;50.812;7.738;2022-09-09T04:38:45;15.50;77.90
3846;DHT22;1938;50.812;7.738;2022-09-09T04:41:11;15.50;96.90
3846;DHT22;1938;50.812;7.738;2022-09-09T04:43:37;15.50;95.40
3846;DHT22;1938;50.812;7.738;2022-09-09T04:46:03;15.50;94.80
3846;DHT22;1938;50.812;7.738;2022-09-09T04:48:29;15.50;82.40
3846;DHT22;1938;50.812;7.738;2022-09-09T04:51:01;15.50;90.50
3846;DHT22;1938;50.812;7.738;2022-09-09T04:53:27;15.60;93.10
3846;DHT22;1938;50.812;7.738;2022-09-09T04:56:08;15.60;63.40
3846;DHT22;1938;50.812;7.738;2022-09-09T04:58:35;15.60;68.40
3846;DHT22;1938;50.812;7.738;2022-09-09T05:01:08;15.60;59.40
3846;DHT22;1938;50.812;7.738;2022-09-09T05:03:34;15.60;56.40
3846;DHT22;1938;50.812;7.738;2022-09-09T05:06:04;15.60;63.20
3846;DHT22;1938;50.812;7.738;2022-09-09T05:08:29;15.60;61.90
3846;DHT22;1938;50.812;7.738;2022-09-09T05:10:55;15.60;56.30
3846;DHT22;1938;50.812;7.738;2022-09-09T05:13:21;15.60;61.10
3846;DHT22;1938;50.812;7.738;2022-09-09T05:15:54;15.70;42.90
3846;DHT22;1938;50.812;7.738;2022-09-09T05:18:20;15.60;27.10
3846;DHT22;1938;50.812;7.738;2022-09-09T05:20:48;15.60;17.80
3846;DHT22;1938;50.812;7.738;2022-09-09T05:23:14;15.60;15.30
3846;DHT22;1938;50.812;7.738;2022-09-09T05:25:40;15.60;12.00
3846;DHT22;1938;50.812;7.738;2022-09-09T05:28:08;15.60;7.70
3846;DHT22;1938;50.812;7.738;2022-09-09T05:30:34;15.60;1.00
3846;DHT22;1938;50.812;7.738;2022-09-09T05:33:00;15.60;1.00
3846;DHT22;1938;50.812;7.738;2022-09-09T05:35:26;15.70;1.00
3846;DHT22;1938;50.812;7.738;2022-09-09T05:37:52;15.80;1.00
3846;DHT22;1938;50.812;7.738;2022-09-09T05:40:17;15.80;1.00
3846;DHT22;1938;50.812;7.738;2022-09-09T05:42:43;15.90;1.00
3846;DHT22;1938;50.812;7.738;2022-09-09T05:45:08;16.00;1.00
3846;DHT22;1938;50.812;7.738;2022-09-09T05:47:35;16.20;99.90
3846;DHT22;1938;50.812;7.738;2022-09-09T05:50:01;16.30;95.00
3846;DHT22;1938;50.812;7.738;2022-09-09T05:52:26;16.80;99.90
3846;DHT22;1938;50.812;7.738;2022-09-09T05:54:52;17.20;3.20
3846;DHT22;1938;50.812;7.738;2022-09-09T05:57:20;18.60;99.90
3846;DHT22;1938;50.812;7.738;2022-09-09T05:59:46;19.00;99.90
3846;DHT22;1938;50.812;7.738;2022-09-09T06:02:11;18.70;28.90
3846;DHT22;1938;50.812;7.738;2022-09-09T06:04:38;18.40;98.00
3846;DHT22;1938;50.812;7.738;2022-09-09T06:07:05;18.10;99.90
3846;DHT22;1938;50.812;7.738;2022-09-09T06:09:30;18.10;99.90
3846;DHT22;1938;50.812;7.738;2022-09-09T06:11:56;18.40;99.90
3846;DHT22;1938;50.812;7.738;2022-09-09T06:14:23;18.50;80.90
3846;DHT22;1938;50.812;7.738;2022-09-09T06:16:51;18.40;99.90
3846;DHT22;1938;50.812;7.738;2022-09-09T06:19:16;18.40;99.90
3846;DHT22;1938;50.812;7.738;2022-09-09T06:21:42;18.20;95.20
3846;DHT22;1938;50.812;7.738;2022-09-09T06:24:10;18.10;99.90
3846;DHT22;1938;50.812;7.738;2022-09-09T06:26:38;17.90;99.90
3846;DHT22;1938;50.812;7.738;2022-09-09T06:29:06;17.70;99.90
3846;DHT22;1938;50.812;7.738;2022-09-09T06:31:33;17.60;99.90
3846;DHT22;1938;50.812;7.738;2022-09-09T06:33:59;17.50;99.90
3846;DHT22;1938;50.812;7.738;2022-09-09T06:36:30;17.50;1.00
3846;DHT22;1938;50.812;7.738;2022-09-09T06:38:56;17.50;1.00
3846;DHT22;1938;50.812;7.738;2022-09-09T06:41:24;17.50;1.00
3846;DHT22;1938;50.812;7.738;2022-09-09T06:43:51;17.50;1.00
3846;DHT22;1938;50.812;7.738;2022-09-09T06:46:21;17.60;1.00
3846;DHT22;1938;50.812;7.738;2022-09-09T06:48:48;17.70;1.00
3846;DHT22;1938;50.812;7.738;2022-09-09T06:51:16;17.70;1.00
3846;DHT22;1938;50.812;7.738;2022-09-09T06:53:43;17.70;1.00
3846;DHT22;1938;50.812;7.738;2022-09-09T06:58:42;17.70;1.00
3846;DHT22;1938;50.812;7.738;2022-09-09T07:01:08;17.70;99.90
3846;DHT22;1938;50.812;7.738;2022-09-09T07:03:35;17.70;99.90
3846;DHT22;1938;50.812;7.738;2022-09-09T07:06:01;17.70;1.00
3846;DHT22;1938;50.812;7.738;2022-09-09T07:08:26;17.70;1.00
3846;DHT22;1938;50.812;7.738;2022-09-09T07:10:52;17.60;1.00
3846;DHT22;1938;50.812;7.738;2022-09-09T07:13:25;17.60;99.90
3846;DHT22;1938;50.812;7.738;2022-09-09T07:15:52;17.50;99.90
3846;DHT22;1938;50.812;7.738;2022-09-09T07:18:18;17.60;1.00
3846;DHT22;1938;50.812;7.738;2022-09-09T07:20:53;17.60;6.90
3846;DHT22;1938;50.812;7.738;2022-09-09T07:23:19;17.80;1.00
3846;DHT22;1938;50.812;7.738;2022-09-09T07:25:45;18.10;99.90
3846;DHT22;1938;50.812;7.738;2022-09-09T07:28:11;18.70;99.90
3846;DHT22;1938;50.812;7.738;2022-09-09T07:30:36;19.90;1.00
3846;DHT22;1938;50.812;7.738;2022-09-09T07:33:02;21.70;99.90
3846;DHT22;1938;50.812;7.738;2022-09-09T07:35:28;22.80;1.00
3846;DHT22;1938;50.812;7.738;2022-09-09T07:37:54;23.00;1.00
3846;DHT22;1938;50.812;7.738;2022-09-09T07:40:20;22.80;1.00
3846;DHT22;1938;50.812;7.738;2022-09-09T07:42:47;22.50;1.00
3846;DHT22;1938;50.812;7.738;2022-09-09T07:45:13;22.30;1.00
3846;DHT22;1938;50.812;7.738;2022-09-09T07:47:39;22.50;1.00
3846;DHT22;1938;50.812;7.738;2022-09-09T07:50:08;22.80;99.90
3846;DHT22;1938;50.812;7.738;2022-09-09T07:52:35;22.40;99.90
3846;DHT22;1938;50.812;7.738;2022-09-09T07:55:01;22.00;99.90
3846;DHT22;1938;50.812;7.738;2022-09-09T07:57:28;21.60;1.00
3846;DHT22;1938;50.812;7.738;2022-09-09T07:59:56;21.40;1.00
3846;DHT22;1938;50.812;7.738;2022-09-09T08:02:23;21.30;1.00
3846;DHT22;1938;50.812;7.738;2022-09-09T08:04:48;21.30;1.00
3846;DHT22;1938;50.812;7.738;2022-09-09T08:07:14;21.60;1.00
3846;DHT22;1938;50.812;7.738;2022-09-09T08:09:41;21.80;1.00
3846;DHT22;1938;50.812;7.738;2022-09-09T08:12:07;22.00;99.90
3846;DHT22;1938;50.812;7.738;2022-09-09T08:14:33;22.50;99.90
3846;DHT22;1938;50.812;7.738;2022-09-09T08:16:59;22.70;99.90
3846;DHT22;1938;50.812;7.738;2022-09-09T08:19:25;22.70;99.90
3846;DHT22;1938;50.812;7.738;2022-09-09T08:21:54;22.30;99.90
3846;DHT22;1938;50.812;7.738;2022-09-09T08:24:19;21.90;99.90
3846;DHT22;1938;50.812;7.738;2022-09-09T08:26:47;21.60;99.90
3846;DHT22;1938;50.812;7.738;2022-09-09T08:29:14;21.20;99.90
3846;DHT22;1938;50.812;7.738;2022-09-09T08:31:52;20.90;99.90
3846;DHT22;1938;50.812;7.738;2022-09-09T08:34:20;20.60;1.00
3846;DHT22;1938;50.812;7.738;2022-09-09T08:36:48;20.50;1.00
3846;DHT22;1938;50.812;7.738;2022-09-09T08:39:16;20.60;1.00
3846;DHT22;1938;50.812;7.738;2022-09-09T08:42:09;21.80;1.00
3846;DHT22;1938;50.812;7.738;2022-09-09T08:44:46;23.50;99.90
3846;DHT22;1938;50.812;7.738;2022-09-09T08:47:25;24.20;99.90
3846;DHT22;1938;50.812;7.738;2022-09-09T08:53:05;23.60;99.90
3846;DHT22;1938;50.812;7.738;2022-09-09T08:55:51;23.20;99.90
3846;DHT22;1938;50.812;7.738;2022-09-09T08:58:25;22.70;99.90
3846;DHT22;1938;50.812;7.738;2022-09-09T09:04:03;21.80;99.90
3846;DHT22;1938;50.812;7.738;2022-09-09T09:09:20;22.10;99.90
3846;DHT22;1938;50.812;7.738;2022-09-09T09:12:00;21.80;99.90
3846;DHT22;1938;50.812;7.738;2022-09-09T09:14:33;21.70;99.90
3846;DHT22;1938;50.812;7.738;2022-09-09T09:17:06;21.60;99.90
3846;DHT22;1938;50.812;7.738;2022-09-09T09:19:35;21.60;99.90
3846;DHT22;1938;50.812;7.738;2022-09-09T09:24:51;21.50;99.90
3846;DHT22;1938;50.812;7.738;2022-09-09T09:27:36;21.30;99.90
3846;DHT22;1938;50.812;7.738;2022-09-09T09:30:17;21.10;99.90
3846;DHT22;1938;50.812;7.738;2022-09-09T09:32:52;20.70;99.90
3846;DHT22;1938;50.812;7.738;2022-09-09T09:35:19;20.60;99.90
3846;DHT22;1938;50.812;7.738;2022-09-09T09:37:45;20.70;1.00
3846;DHT22;1938;50.812;7.738;2022-09-09T09:40:14;20.90;99.90
3846;DHT22;1938;50.812;7.738;2022-09-09T09:43:00;20.90;99.90
3846;DHT22;1938;50.812;7.738;2022-09-09T09:45:41;20.80;99.90
3846;DHT22;1938;50.812;7.738;2022-09-09T09:48:11;20.70;99.90
3846;DHT22;1938;50.812;7.738;2022-09-09T09:51:02;20.80;99.90
3846;DHT22;1938;50.812;7.738;2022-09-09T09:53:34;20.80;99.90
3846;DHT22;1938;50.812;7.738;2022-09-09T09:56:03;20.70;99.90
3846;DHT22;1938;50.812;7.738;2022-09-09T09:58:51;20.40;99.90
3846;DHT22;1938;50.812;7.738;2022-09-09T10:01:28;20.10;99.90
3846;DHT22;1938;50.812;7.738;2022-09-09T10:03:59;19.90;99.90
3846;DHT22;1938;50.812;7.738;2022-09-09T10:06:35;19.90;99.90
3846;DHT22;1938;50.812;7.738;2022-09-09T10:09:03;20.10;99.90
3846;DHT22;1938;50.812;7.738;2022-09-09T10:17:04;20.60;99.90
3846;DHT22;1938;50.812;7.738;2022-09-09T10:19:34;20.70;99.90
3846;DHT22;1938;50.812;7.738;2022-09-09T10:22:23;20.80;99.90
3846;DHT22;1938;50.812;7.738;2022-09-09T10:30:06;21.00;99.90
3846;DHT22;1938;50.812;7.738;2022-09-09T10:38:11;21.00;99.90
3846;DHT22;1938;50.812;7.738;2022-09-09T10:44:02;20.90;99.90
3846;DHT22;1938;50.812;7.738;2022-09-09T10:47:00;21.00;99.90
3846;DHT22;1938;50.812;7.738;2022-09-09T10:49:57;21.20;99.90
3846;DHT22;1938;50.812;7.738;2022-09-09T10:55:18;21.60;99.90
3846;DHT22;1938;50.812;7.738;2022-09-09T10:57:45;21.80;99.90
3846;DHT22;1938;50.812;7.738;2022-09-09T11:00:20;21.80;99.90
3846;DHT22;1938;50.812;7.738;2022-09-09T11:02:55;21.70;99.90
3846;DHT22;1938;50.812;7.738;2022-09-09T11:08:10;21.60;99.90
3846;DHT22;1938;50.812;7.738;2022-09-09T11:11:03;21.80;99.90
3846;DHT22;1938;50.812;7.738;2022-09-09T11:13:49;22.00;99.90
3846;DHT22;1938;50.812;7.738;2022-09-09T11:16:36;22.20;99.90
3846;DHT22;1938;50.812;7.738;2022-09-09T11:22:02;22.30;99.90
3846;DHT22;1938;50.812;7.738;2022-09-09T11:24:37;22.50;99.90
3846;DHT22;1938;50.812;7.738;2022-09-09T11:27:26;22.70;99.90
3846;DHT22;1938;50.812;7.738;2022-09-09T11:30:22;22.70;99.90
3846;DHT22;1938;50.812;7.738;2022-09-09T11:36:05;22.50;99.90
3846;DHT22;1938;50.812;7.738;2022-09-09T11:38:44;22.50;99.90
3846;DHT22;1938;50.812;7.738;2022-09-09T11:41:10;22.80;99.90
3846;DHT22;1938;50.812;7.738;2022-09-09T11:46:10;23.20;99.90
3846;DHT22;1938;50.812;7.738;2022-09-09T11:48:38;23.30;99.90
3846;DHT22;1938;50.812;7.738;2022-09-09T11:51:12;23.10;99.90
3846;DHT22;1938;50.812;7.738;2022-09-09T11:53:55;23.10;99.90
3846;DHT22;1938;50.812;7.738;2022-09-09T12:01:36;22.70;99.90
3846;DHT22;1938;50.812;7.738;2022-09-09T12:09:28;22.20;99.90
3846;DHT22;1938;50.812;7.738;2022-09-09T12:12:29;22.00;99.90
3846;DHT22;1938;50.812;7.738;2022-09-09T12:28:55;21.90;99.90
3846;DHT22;1938;50.812;7.738;2022-09-09T12:31:34;21.80;99.90
3846;DHT22;1938;50.812;7.738;2022-09-09T12:34:42;22.00;99.90
3846;DHT22;1938;50.812;7.738;2022-09-09T12:37:15;22.20;99.90
3846;DHT22;1938;50.812;7.738;2022-09-09T12:39:48;22.20;99.90
3846;DHT22;1938;50.812;7.738;2022-09-09T12:42:19;22.20;99.90
3846;DHT22;1938;50.812;7.738;2022-09-09T12:44:53;22.10;99.90
3846;DHT22;1938;50.812;7.738;2022-09-09T12:47:25;22.10;99.90
3846;DHT22;1938;50.812;7.738;2022-09-09T12:49:53;22.10;99.90
3846;DHT22;1938;50.812;7.738;2022-09-09T12:54:47;22.10;99.90
3846;DHT22;1938;50.812;7.738;2022-09-09T12:57:13;22.00;99.90
3846;DHT22;1938;50.812;7.738;2022-09-09T12:59:41;22.00;99.90
3846;DHT22;1938;50.812;7.738;2022-09-09T13:02:19;22.00;99.90
3846;DHT22;1938;50.812;7.738;2022-09-09T13:04:45;21.90;99.90
3846;DHT22;1938;50.812;7.738;2022-09-09T13:07:12;22.00;99.90
3846;DHT22;1938;50.812;7.738;2022-09-09T13:09:39;22.10;99.90
3846;DHT22;1938;50.812;7.738;2022-09-09T13:12:06;22.20;99.90
3846;DHT22;1938;50.812;7.738;2022-09-09T13:14:36;22.10;99.90
3846;DHT22;1938;50.812;7.738;2022-09-09T13:17:06;22.00;99.60
3846;DHT22;1938;50.812;7.738;2022-09-09T13:19:36;21.70;99.90
3846;DHT22;1938;50.812;7.738;2022-09-09T13:22:31;21.60;99.90
3846;DHT22;1938;50.812;7.738;2022-09-09T13:27:36;21.50;99.90
3846;DHT22;1938;50.812;7.738;2022-09-09T13:30:21;21.60;99.90
3846;DHT22;1938;50.812;7.738;2022-09-09T13:35:35;21.70;99.90
3846;DHT22;1938;50.812;7.738;2022-09-09T13:38:12;21.80;99.90
3846;DHT22;1938;50.812;7.738;2022-09-09T13:40:38;21.80;99.90
3846;DHT22;1938;50.812;7.738;2022-09-09T13:43:04;21.80;99.90
3846;DHT22;1938;50.812;7.738;2022-09-09T13:45:30;21.90;99.90
3846;DHT22;1938;50.812;7.738;2022-09-09T13:47:56;21.90;99.90
3846;DHT22;1938;50.812;7.738;2022-09-09T13:52:54;21.90;99.90
3846;DHT22;1938;50.812;7.738;2022-09-09T13:55:22;22.00;99.90
3846;DHT22;1938;50.812;7.738;2022-09-09T13:57:53;21.90;99.90
3846;DHT22;1938;50.812;7.738;2022-09-09T14:00:20;21.90;99.90
3846;DHT22;1938;50.812;7.738;2022-09-09T14:02:46;22.00;99.90
3846;DHT22;1938;50.812;7.738;2022-09-09T14:05:12;22.10;99.90
3846;DHT22;1938;50.812;7.738;2022-09-09T14:07:39;22.10;99.90
3846;DHT22;1938;50.812;7.738;2022-09-09T14:10:06;22.00;99.90
3846;DHT22;1938;50.812;7.738;2022-09-09T14:12:31;21.70;99.90
3846;DHT22;1938;50.812;7.738;2022-09-09T14:14:57;21.60;99.90
3846;DHT22;1938;50.812;7.738;2022-09-09T14:17:22;21.40;99.90
3846;DHT22;1938;50.812;7.738;2022-09-09T14:19:48;21.30;99.90
3846;DHT22;1938;50.812;7.738;2022-09-09T14:22:14;21.10;99.90
3846;DHT22;1938;50.812;7.738;2022-09-09T14:24:39;20.70;99.90
3846;DHT22;1938;50.812;7.738;2022-09-09T14:27:06;20.50;1.00
3846;DHT22;1938;50.812;7.738;2022-09-09T14:29:31;20.40;1.00
3846;DHT22;1938;50.812;7.738;2022-09-09T14:31:58;20.20;1.00
3846;DHT22;1938;50.812;7.738;2022-09-09T14:34:26;20.00;1.00
3846;DHT22;1938;50.812;7.738;2022-09-09T14:36:51;19.70;1.00
3846;DHT22;1938;50.812;7.738;2022-09-09T14:39:17;19.40;4.90
3846;DHT22;1938;50.812;7.738;2022-09-09T14:41:43;19.20;67.10
3846;DHT22;1938;50.812;7.738;2022-09-09T14:44:08;19.00;99.90
3846;DHT22;1938;50.812;7.738;2022-09-09T14:46:34;18.80;99.90
3846;DHT22;1938;50.812;7.738;2022-09-09T14:48:59;18.80;99.90
3846;DHT22;1938;50.812;7.738;2022-09-09T14:51:26;18.70;1.00
3846;DHT22;1938;50.812;7.738;2022-09-09T14:53:58;18.80;1.00
3846;DHT22;1938;50.812;7.738;2022-09-09T14:56:29;18.90;1.00
3846;DHT22;1938;50.812;7.738;2022-09-09T14:58:57;19.00;1.00
3846;DHT22;1938;50.812;7.738;2022-09-09T15:01:24;19.10;1.00
3846;DHT22;1938;50.812;7.738;2022-09-09T15:03:57;19.20;99.90
3846;DHT22;1938;50.812;7.738;2022-09-09T15:06:24;19.10;99.90
3846;DHT22;1938;50.812;7.738;2022-09-09T15:08:52;19.00;99.90
3846;DHT22;1938;50.812;7.738;2022-09-09T15:11:18;19.10;1.00
3846;DHT22;1938;50.812;7.738;2022-09-09T15:13:44;19.40;99.90
3846;DHT22;1938;50.812;7.738;2022-09-09T15:16:15;19.50;99.90
3846;DHT22;1938;50.812;7.738;2022-09-09T15:18:41;19.60;99.90
3846;DHT22;1938;50.812;7.738;2022-09-09T15:21:16;19.70;99.90
3846;DHT22;1938;50.812;7.738;2022-09-09T15:23:42;19.70;99.90
3846;DHT22;1938;50.812;7.738;2022-09-09T15:26:09;19.60;99.90
3846;DHT22;1938;50.812;7.738;2022-09-09T15:28:36;19.60;99.90
3846;DHT22;1938;50.812;7.738;2022-09-09T15:31:15;19.60;1.00
3846;DHT22;1938;50.812;7.738;2022-09-09T15:33:48;19.50;1.00
3846;DHT22;1938;50.812;7.738;2022-09-09T15:36:14;19.30;1.00
3846;DHT22;1938;50.812;7.738;2022-09-09T15:38:40;19.10;44.70
3846;DHT22;1938;50.812;7.738;2022-09-09T15:41:06;19.00;73.90
3846;DHT22;1938;50.812;7.738;2022-09-09T15:43:31;18.90;82.80
3846;DHT22;1938;50.812;7.738;2022-09-09T15:46:05;18.80;99.90
3846;DHT22;1938;50.812;7.738;2022-09-09T15:48:33;18.80;99.90
3846;DHT22;1938;50.812;7.738;2022-09-09T15:51:05;18.90;99.90
3846;DHT22;1938;50.812;7.738;2022-09-09T15:53:30;18.90;99.90
3846;DHT22;1938;50.812;7.738;2022-09-09T15:55:58;18.80;30.00
3846;DHT22;1938;50.812;7.738;2022-09-09T15:58:24;18.80;99.90
3846;DHT22;1938;50.812;7.738;2022-09-09T16:00:50;18.80;20.80
3846;DHT22;1938;50.812;7.738;2022-09-09T16:03:15;18.80;54.20
3846;DHT22;1938;50.812;7.738;2022-09-09T16:05:41;18.70;23.40
3846;DHT22;1938;50.812;7.738;2022-09-09T16:08:06;18.80;99.80
3846;DHT22;1938;50.812;7.738;2022-09-09T16:10:32;18.60;1.00
3846;DHT22;1938;50.812;7.738;2022-09-09T16:12:57;18.50;1.00
3846;DHT22;1938;50.812;7.738;2022-09-09T16:15:24;18.60;1.00
3846;DHT22;1938;50.812;7.738;2022-09-09T16:17:53;18.50;6.40
3846;DHT22;1938;50.812;7.738;2022-09-09T16:20:19;18.40;12.90
3846;DHT22;1938;50.812;7.738;2022-09-09T16:22:45;18.30;56.70
3846;DHT22;1938;50.812;7.738;2022-09-09T16:25:11;18.10;99.90
3846;DHT22;1938;50.812;7.738;2022-09-09T16:27:36;18.00;99.90
3846;DHT22;1938;50.812;7.738;2022-09-09T16:30:02;17.80;99.90
3846;DHT22;1938;50.812;7.738;2022-09-09T16:32:28;17.80;99.90
3846;DHT22;1938;50.812;7.738;2022-09-09T16:34:55;17.70;99.90
3846;DHT22;1938;50.812;7.738;2022-09-09T16:37:20;17.60;99.90
3846;DHT22;1938;50.812;7.738;2022-09-09T16:39:46;17.50;99.90
3846;DHT22;1938;50.812;7.738;2022-09-09T16:42:11;17.40;1.00
3846;DHT22;1938;50.812;7.738;2022-09-09T16:44:37;17.30;16.70
3846;DHT22;1938;50.812;7.738;2022-09-09T16:47:02;17.10;57.40
3846;DHT22;1938;50.812;7.738;2022-09-09T16:49:28;17.00;99.90
3846;DHT22;1938;50.812;7.738;2022-09-09T16:51:56;17.00;99.90
3846;DHT22;1938;50.812;7.738;2022-09-09T16:54:22;16.90;1.00
3846;DHT22;1938;50.812;7.738;2022-09-09T16:56:50;16.90;96.40
3846;DHT22;1938;50.812;7.738;2022-09-09T16:59:18;16.90;99.90
3846;DHT22;1938;50.812;7.738;2022-09-09T17:01:45;16.90;74.90
3846;DHT22;1938;50.812;7.738;2022-09-09T17:04:24;16.90;1.00
3846;DHT22;1938;50.812;7.738;2022-09-09T17:06:52;16.90;1.00
3846;DHT22;1938;50.812;7.738;2022-09-09T17:09:19;16.90;1.00
3846;DHT22;1938;50.812;7.738;2022-09-09T17:11:45;16.80;31.80
3846;DHT22;1938;50.812;7.738;2022-09-09T17:14:16;16.80;93.20
3846;DHT22;1938;50.812;7.738;2022-09-09T17:16:42;16.70;99.90
3846;DHT22;1938;50.812;7.738;2022-09-09T17:19:09;16.60;99.90
3846;DHT22;1938;50.812;7.738;2022-09-09T17:21:35;16.60;1.00
3846;DHT22;1938;50.812;7.738;2022-09-09T17:24:01;16.50;14.60
3846;DHT22;1938;50.812;7.738;2022-09-09T17:26:29;16.50;99.90
3846;DHT22;1938;50.812;7.738;2022-09-09T17:28:56;16.40;99.90
3846;DHT22;1938;50.812;7.738;2022-09-09T17:31:24;16.40;1.00
3846;DHT22;1938;50.812;7.738;2022-09-09T17:33:50;16.30;99.90
3846;DHT22;1938;50.812;7.738;2022-09-09T17:36:30;16.30;1.00
3846;DHT22;1938;50.812;7.738;2022-09-09T17:38:55;16.20;1.00
3846;DHT22;1938;50.812;7.738;2022-09-09T17:41:27;16.20;30.10
3846;DHT22;1938;50.812;7.738;2022-09-09T17:43:53;16.20;41.80
3846;DHT22;1938;50.812;7.738;2022-09-09T17:46:36;16.20;99.90
3846;DHT22;1938;50.812;7.738;2022-09-09T17:49:05;16.10;99.90
3846;DHT22;1938;50.812;7.738;2022-09-09T17:51:33;16.10;99.90
3846;DHT22;1938;50.812;7.738;2022-09-09T17:54:02;16.00;1.00
3846;DHT22;1938;50.812;7.738;2022-09-09T17:56:29;16.00;1.00
3846;DHT22;1938;50.812;7.738;2022-09-09T17:58:59;16.00;1.00
3846;DHT22;1938;50.812;7.738;2022-09-09T18:01:27;15.90;1.00
3846;DHT22;1938;50.812;7.738;2022-09-09T18:03:55;15.90;1.00
3846;DHT22;1938;50.812;7.738;2022-09-09T18:06:26;15.80;1.00
3846;DHT22;1938;50.812;7.738;2022-09-09T18:08:57;15.70;5.60
3846;DHT22;1938;50.812;7.738;2022-09-09T18:11:28;15.70;15.70
3846;DHT22;1938;50.812;7.738;2022-09-09T18:13:56;15.60;35.30
3846;DHT22;1938;50.812;7.738;2022-09-09T18:16:28;15.60;50.20
3846;DHT22;1938;50.812;7.738;2022-09-09T18:18:55;15.60;51.00
3846;DHT22;1938;50.812;7.738;2022-09-09T18:21:23;15.50;84.10
3846;DHT22;1938;50.812;7.738;2022-09-09T18:23:50;15.50;89.70